Fort Severn Airport
CYER : now visible

Airfield :











YOU CAN JOIN US ON...

 
LOGIN :

Register | Disclaimer

   EN    FR    IT 

 









Legend :    VFR   Marginal VFR   IFR   Intensive IFR   Very Intensive IFR
Visi :
Ceiling :
>= 8 km
>= 3000ft
5 to 8 km
1000 to 3000 ft
1500m to 5 km
500 to 1000 ft
800 to 1500m
200 to 500 ft
< 800m
< 200 ft
Symbols :   Thunderstorms  Fog  Heavy snow  Heavy precipitations  Wind > 20 kt






- Airport Elevation : 48 ft
- IATA code : YER


CYER - Fort Severn

CURRENT METAR :
  • 191632Z AUTO 34006KT 5SM BR OVC005 12/11 A3000 RMK SLP162

EXPIRED METARs :
  • 191610Z AUTO 34008KT 3SM BR OVC003 12/12 A3000 RMK SLP163
  • 191607Z AUTO 33008KT 2 1/2SM BR OVC003 12/11 A3000 RMK VIS VRB 2-3 SLP163
  • 191548Z AUTO 33007KT 1 1/2SM BR OVC003 12/12 A3000 RMK SLP161
  • 191533Z AUTO 33007KT 1 1/4SM BR OVC003 12/11 A2999 RMK SLP160
  • 191529Z AUTO 34006KT 1 1/2SM BR OVC003 12/11 A2999 RMK SLP160
  • 191509Z AUTO 34008KT 1SM -RA BR OVC003 12/11 A2999 RMK SLP160
  • 191502Z AUTO 33009KT 2SM BR OVC003 12/11 A2999 RMK SLP159
  • 191455Z AUTO 35008KT 2 1/2SM -RA BR OVC003 12/11 A2999 RMK SLP159
  • 191428Z AUTO 34007KT 1 1/2SM BR OVC003 11/11 A2999 RMK SLP158
  • 191412Z AUTO 33008KT 290V360 1 1/4SM BR OVC003 11/11 A2998 RMK VIS VRB 1-3 SLP156
  • 191404Z AUTO 33005KT 2 1/4SM BR OVC003 11/11 A2998 RMK SLP155
  • 191352Z AUTO 32009KT 2 1/2SM BR OVC003 11/11 A2998 RMK SLP155

TAF TAF CYER
Valid from the 19 at 15:00 until the 19 at 19:00 UTC


191520Z 1915/1919 33008KT 1SM -DZ BR OVC003
TEMPO 1915/1918 6SM BR SCT003 OVC010
FM191800 35012KT 2SM -DZ BR OVC005
TEMPO 1918/1919 6SM BR SCT005 OVC010 RMK FCST BASED ON AUTO OBS. NXT FCST BY 200900Z
CZWG FIR / North America



MET'MAP, your aeronautical weather chart ! - Copyright ORBIFLY December 2007 - Disclaimer

ORBIFLY MET'MAP TEAM :

Programming & Development : Alexandra Zaïnal
Original concept : Baudouin d'Aumeries
Technical & hardware support : Manuel Goepfert
Assistance : Marc-Olivier Méhu




SOURCES & CREDITS :

   NOAA       Earth
Advisory